createdAt,value
2019-06-19T00:00:15.075Z,99.99
2019-06-19T00:01:15.136Z,99.99
2019-06-19T00:02:15.198Z,99.99
2019-06-19T00:03:15.060Z,99.99
2019-06-19T00:04:15.143Z,99.99
2019-06-19T00:05:15.141Z,99.99
2019-06-19T00:06:15.145Z,99.99
2019-06-19T00:07:15.069Z,99.99
2019-06-19T00:08:15.110Z,99.99
2019-06-19T00:10:15.135Z,99.99
2019-06-19T00:11:15.075Z,99.99
2019-06-19T00:12:15.131Z,99.99
2019-06-19T00:13:15.062Z,99.99
2019-06-19T00:14:15.152Z,99.99
2019-06-19T00:15:15.057Z,99.99
2019-06-19T00:16:15.131Z,99.99
2019-06-19T00:17:15.056Z,99.99
2019-06-19T00:18:15.132Z,99.99
2019-06-19T00:19:15.067Z,99.99
2019-06-19T00:20:15.075Z,99.99
2019-06-19T00:21:15.076Z,99.99
2019-06-19T00:22:15.116Z,99.99
2019-06-19T00:23:15.090Z,99.99
2019-06-19T00:24:15.151Z,99.99
2019-06-19T00:25:15.154Z,99.99
2019-06-19T00:26:15.041Z,99.99
2019-06-19T00:27:15.149Z,99.99
2019-06-19T00:28:17.519Z,99.99
2019-06-19T00:30:15.162Z,99.99
2019-06-19T00:31:15.071Z,99.99
2019-06-19T00:32:15.076Z,99.99
2019-06-19T00:33:15.142Z,99.99
2019-06-19T00:34:15.074Z,99.99
2019-06-19T00:35:15.082Z,99.99
2019-06-19T00:36:15.143Z,99.99
2019-06-19T00:37:15.246Z,99.99
2019-06-19T00:38:15.080Z,99.99
2019-06-19T00:39:15.150Z,99.99
2019-06-19T00:40:15.078Z,99.99
2019-06-19T00:41:15.086Z,99.99
2019-06-19T00:42:15.151Z,99.99
2019-06-19T00:43:15.122Z,99.99
2019-06-19T00:44:15.086Z,99.99
2019-06-19T00:45:15.164Z,99.99
2019-06-19T00:46:15.088Z,99.99
2019-06-19T00:47:15.161Z,99.99
2019-06-19T00:48:15.089Z,99.99
2019-06-19T00:49:15.167Z,99.99
2019-06-19T00:50:15.174Z,99.99
2019-06-19T00:51:15.154Z,99.99
2019-06-19T00:52:15.238Z,99.99
2019-06-19T00:53:15.098Z,99.99
2019-06-19T00:54:15.170Z,99.99
2019-06-19T00:55:15.116Z,99.99
2019-06-19T00:56:15.202Z,99.99
2019-06-19T00:57:15.191Z,99.99
2019-06-19T00:58:15.108Z,99.99
2019-06-19T00:59:15.178Z,99.99
2019-06-19T01:00:15.149Z,99.99
2019-06-19T01:01:15.047Z,99.99
2019-06-19T01:02:15.068Z,99.99
2019-06-19T01:03:15.114Z,99.99
2019-06-19T01:04:15.137Z,99.99
2019-06-19T01:05:15.121Z,99.99
2019-06-19T01:06:15.112Z,99.99
2019-06-19T01:07:15.139Z,99.99
2019-06-19T03:05:23.659Z,99.99
2019-06-19T03:06:15.269Z,99.99
2019-06-19T03:07:15.184Z,99.99
2019-06-19T03:08:15.259Z,99.99
2019-06-19T03:09:15.185Z,99.99
2019-06-19T03:10:15.290Z,99.99
2019-06-19T03:11:15.231Z,99.99
2019-06-19T03:12:15.277Z,99.99
2019-06-19T03:13:15.287Z,99.99
2019-06-19T03:14:15.281Z,99.99
2019-06-19T03:15:15.291Z,99.99
2019-06-19T03:16:15.208Z,99.99
2019-06-19T03:17:15.229Z,99.99
2019-06-19T03:18:15.230Z,99.99
2019-06-19T03:19:15.293Z,99.99
2019-06-19T03:20:15.270Z,99.99
2019-06-19T03:21:15.294Z,99.99
2019-06-19T03:22:15.202Z,99.99
2019-06-19T03:23:15.376Z,99.99
2019-06-19T03:24:17.219Z,99.99
2019-06-19T03:25:15.205Z,99.99
2019-06-19T03:26:15.272Z,99.99
2019-06-19T03:27:15.213Z,99.99
2019-06-19T03:28:15.279Z,99.99
2019-06-19T03:29:15.284Z,99.99
2019-06-19T03:30:15.219Z,99.99
2019-06-19T03:31:32.848Z,99.99
2019-06-19T03:32:15.295Z,99.99
2019-06-19T03:33:15.299Z,99.99
2019-06-19T03:34:15.288Z,99.99
2019-06-19T03:35:15.223Z,99.99
2019-06-19T03:36:15.225Z,99.99
2019-06-19T03:37:15.262Z,99.99
2019-06-19T03:38:15.223Z,99.99
2019-06-19T03:39:15.292Z,99.99
2019-06-19T03:40:15.098Z,99.99
2019-06-19T03:41:15.102Z,99.99
2019-06-19T03:42:15.094Z,99.99
2019-06-19T03:43:15.199Z,99.99
2019-06-19T03:44:15.144Z,99.99
2019-06-19T03:45:15.187Z,99.99
2019-06-19T03:46:15.098Z,99.99
2019-06-19T03:47:15.101Z,99.99
2019-06-19T03:48:15.102Z,99.99
2019-06-19T03:49:15.277Z,99.99
2019-06-19T03:50:15.295Z,99.99
2019-06-19T03:51:15.226Z,99.99
2019-06-19T03:52:15.298Z,99.99
2019-06-19T03:53:15.221Z,99.99
2019-06-19T03:54:15.304Z,99.99
2019-06-19T03:55:15.222Z,99.99
2019-06-19T03:56:15.295Z,99.99
2019-06-19T03:57:15.230Z,99.99
2019-06-19T03:58:15.298Z,99.99
2019-06-19T03:59:15.302Z,99.99
2019-06-19T04:00:15.252Z,99.99
2019-06-19T04:01:15.272Z,99.99
2019-06-19T04:02:15.304Z,99.99
2019-06-19T04:03:15.214Z,99.99
2019-06-19T04:04:15.238Z,99.99
2019-06-19T04:05:15.304Z,99.99
2019-06-19T04:06:15.322Z,99.99
2019-06-19T04:07:16.956Z,99.99
2019-06-19T04:08:15.313Z,99.99
2019-06-19T04:09:15.223Z,99.99
2019-06-19T04:10:15.265Z,99.99
2019-06-19T04:11:15.321Z,99.99
2019-06-19T04:12:15.324Z,99.99
2019-06-19T04:13:15.259Z,99.99
2019-06-19T04:14:15.266Z,99.99
2019-06-19T04:15:15.318Z,99.99
2019-06-19T04:16:15.327Z,99.99
2019-06-19T04:17:15.208Z,99.99
2019-06-19T04:18:15.326Z,99.99
2019-06-19T04:19:15.325Z,99.99
2019-06-19T04:20:15.277Z,99.99
2019-06-19T04:21:15.215Z,99.99
2019-06-19T04:22:15.221Z,99.99
2019-06-19T04:23:15.259Z,99.99
2019-06-19T04:24:15.229Z,99.99
2019-06-19T04:25:15.290Z,99.99
2019-06-19T04:26:15.266Z,99.99
2019-06-19T04:27:15.191Z,99.99
2019-06-19T04:28:15.295Z,99.99
2019-06-19T04:29:15.267Z,99.99
2019-06-19T04:30:15.265Z,99.99
2019-06-19T04:31:15.194Z,99.99
2019-06-19T04:32:15.195Z,99.99
2019-06-19T04:33:15.193Z,99.99
2019-06-19T04:34:15.306Z,99.99
2019-06-19T04:35:15.255Z,99.99
2019-06-19T04:36:15.229Z,99.99
2019-06-19T04:37:15.277Z,99.99
2019-06-19T04:38:15.251Z,99.99
2019-06-19T04:39:15.228Z,99.99
2019-06-19T04:40:15.300Z,99.99
2019-06-19T04:41:15.279Z,99.99
2019-06-19T04:42:15.318Z,99.99
2019-06-19T04:43:15.357Z,99.99
2019-06-19T04:44:15.286Z,99.99
2019-06-19T04:45:15.258Z,99.99
2019-06-19T04:46:15.242Z,99.99
2019-06-19T04:47:15.381Z,99.99
2019-06-19T04:48:15.363Z,99.99
2019-06-19T04:49:15.403Z,99.99
2019-06-19T04:50:15.280Z,99.99
2019-06-19T04:51:15.360Z,99.99
2019-06-19T04:52:15.382Z,99.99
2019-06-19T04:53:15.292Z,99.99
2019-06-19T04:54:15.386Z,99.99
2019-06-19T04:55:15.363Z,99.99
2019-06-19T04:56:15.290Z,99.99
2019-06-19T04:57:15.378Z,99.99
2019-06-19T04:58:15.319Z,99.99
2019-06-19T04:59:15.369Z,99.99
2019-06-19T05:00:15.475Z,99.99
2019-06-19T05:01:15.368Z,99.99
2019-06-19T05:02:21.056Z,99.99
2019-06-19T05:03:15.289Z,99.99
2019-06-19T05:04:15.298Z,99.99
2019-06-19T05:05:15.247Z,99.99
2019-06-19T05:06:15.291Z,99.99
2019-06-19T05:07:15.296Z,99.99
2019-06-19T05:08:15.303Z,99.99
2019-06-19T05:09:15.291Z,99.99
2019-06-19T05:10:15.373Z,99.99
2019-06-19T05:11:15.303Z,99.99
2019-06-19T05:12:15.263Z,99.99
2019-06-19T05:13:15.301Z,99.99
2019-06-19T05:14:15.292Z,99.99
2019-06-19T05:15:15.240Z,99.99
2019-06-19T05:16:15.348Z,99.99
2019-06-19T05:17:15.286Z,99.99
2019-06-19T05:18:15.321Z,99.99
2019-06-19T05:19:15.266Z,99.99
2019-06-19T05:20:15.369Z,99.99
2019-06-19T05:21:15.304Z,99.99
2019-06-19T05:22:15.326Z,99.99
2019-06-19T05:23:15.303Z,99.99
2019-06-19T05:24:15.319Z,99.99
2019-06-19T05:25:15.330Z,99.99
2019-06-19T05:26:15.386Z,99.99
2019-06-19T05:27:15.337Z,99.99
2019-06-19T05:28:15.456Z,99.99
2019-06-19T05:29:15.338Z,99.99
2019-06-19T05:30:15.316Z,99.99
2019-06-19T05:31:15.300Z,99.99
2019-06-19T05:32:15.375Z,99.99
2019-06-19T05:33:15.294Z,99.99
2019-06-19T05:34:16.991Z,99.99
2019-06-19T05:35:15.372Z,99.99
2019-06-19T05:36:15.303Z,99.99
2019-06-19T05:37:15.520Z,99.99
2019-06-19T05:38:15.304Z,99.99
2019-06-19T05:39:15.376Z,99.99
2019-06-19T05:40:15.325Z,99.99
2019-06-19T05:41:15.376Z,99.99
2019-06-19T05:42:15.306Z,99.99
2019-06-19T05:43:15.378Z,99.99
2019-06-19T05:44:15.305Z,99.99
2019-06-19T05:45:15.378Z,99.99
2019-06-19T05:46:15.311Z,99.99
2019-06-19T05:47:15.390Z,99.99
2019-06-19T05:48:15.411Z,99.59
2019-06-19T05:49:15.316Z,99.18
2019-06-19T05:50:15.384Z,98.80
2019-06-19T05:51:15.336Z,98.40
2019-06-19T05:52:15.450Z,98.02
2019-06-19T05:53:15.422Z,97.80
2019-06-19T05:54:15.339Z,97.07
2019-06-19T05:55:15.338Z,96.15
2019-06-19T05:56:15.384Z,96.07
2019-06-19T05:57:15.288Z,95.42
2019-06-19T05:58:15.330Z,94.21
2019-06-19T05:59:15.303Z,93.35
2019-06-19T06:00:15.417Z,92.05
2019-06-19T06:01:15.405Z,91.14
2019-06-19T06:02:15.323Z,89.99
2019-06-19T06:03:15.413Z,89.56
2019-06-19T06:04:15.330Z,89.22
2019-06-19T06:05:15.407Z,88.28
2019-06-19T06:06:15.406Z,87.85
2019-06-19T06:07:15.333Z,87.24
2019-06-19T06:08:15.408Z,87.26
2019-06-19T06:09:15.335Z,86.81
2019-06-19T06:10:15.398Z,86.68
2019-06-19T06:11:15.419Z,85.24
2019-06-19T06:12:15.351Z,84.63
2019-06-19T06:13:15.411Z,84.79
2019-06-19T06:14:15.410Z,84.42
2019-06-19T06:15:15.428Z,83.46
2019-06-19T06:16:15.419Z,83.70
2019-06-19T06:17:15.423Z,83.51
2019-06-19T06:18:15.342Z,84.09
2019-06-19T06:19:15.437Z,84.31
2019-06-19T06:20:15.417Z,84.58
2019-06-19T06:21:15.422Z,84.31
2019-06-19T06:22:15.353Z,84.44
2019-06-19T06:23:15.415Z,84.36
2019-06-19T06:24:15.421Z,85.00
2019-06-19T06:25:15.420Z,85.66
2019-06-19T06:26:15.402Z,84.44
2019-06-19T06:27:15.422Z,83.44
2019-06-19T06:28:15.493Z,83.36
2019-06-19T06:29:15.356Z,83.83
2019-06-19T06:30:15.423Z,83.36
2019-06-19T06:31:15.329Z,82.37
2019-06-19T06:33:15.415Z,83.14
2019-06-19T06:34:15.342Z,82.61
2019-06-19T06:35:15.419Z,81.95
2019-06-19T06:36:15.351Z,80.57
2019-06-19T06:37:15.419Z,79.60
2019-06-19T06:38:15.352Z,79.23
2019-06-19T06:39:15.427Z,78.94
2019-06-19T06:40:15.430Z,78.28
2019-06-19T06:41:15.365Z,78.67
2019-06-19T06:42:15.435Z,77.31
2019-06-19T06:43:15.434Z,75.70
2019-06-19T06:44:15.444Z,74.87
2019-06-19T06:45:15.367Z,74.13
2019-06-19T06:46:15.458Z,74.58
2019-06-19T06:47:15.412Z,75.70
2019-06-19T06:48:15.387Z,76.65
2019-06-19T06:49:15.336Z,77.62
2019-06-19T06:50:15.445Z,78.83
2019-06-19T06:51:15.428Z,79.63
2019-06-19T06:52:15.353Z,80.10
2019-06-19T06:53:15.332Z,79.75
2019-06-19T06:54:15.399Z,79.65
2019-06-19T06:55:18.184Z,79.86
2019-06-19T06:56:15.399Z,79.68
2019-06-19T06:57:15.357Z,79.60
2019-06-19T06:58:15.383Z,78.57
2019-06-19T06:59:15.337Z,77.94
2019-06-19T07:00:15.364Z,77.81
2019-06-19T07:01:15.333Z,77.81
2019-06-19T07:02:15.405Z,77.73
2019-06-19T07:03:24.239Z,77.44
2019-06-19T07:04:15.385Z,77.99
2019-06-19T07:05:15.449Z,77.99
2019-06-19T07:06:15.448Z,77.28
2019-06-19T07:07:15.479Z,77.73
2019-06-19T07:08:15.454Z,76.54
2019-06-19T07:09:15.461Z,76.41
2019-06-19T07:10:15.455Z,75.89
2019-06-19T07:11:15.469Z,76.28
2019-06-19T07:12:15.456Z,76.15
2019-06-19T07:13:15.456Z,75.89
2019-06-19T07:14:15.463Z,75.18
2019-06-19T07:15:15.458Z,75.13
2019-06-19T07:16:15.405Z,74.52
2019-06-19T07:17:15.412Z,74.44
2019-06-19T07:18:15.415Z,73.69
2019-06-19T07:19:15.466Z,73.24
2019-06-19T07:20:15.405Z,71.03
2019-06-19T07:21:15.466Z,72.61
2019-06-19T07:22:15.513Z,73.63
2019-06-19T07:23:15.468Z,73.53
2019-06-19T07:24:15.392Z,73.48
2019-06-19T07:25:15.418Z,73.66
2019-06-19T07:26:15.468Z,74.13
2019-06-19T07:27:15.415Z,72.61
2019-06-19T07:28:15.672Z,71.81
2019-06-19T07:29:15.474Z,71.28
2019-06-19T07:30:15.442Z,71.60
2019-06-19T07:31:15.463Z,71.91
2019-06-19T07:32:15.433Z,70.11
2019-06-19T07:33:15.397Z,70.74
2019-06-19T07:34:15.389Z,69.93
2019-06-19T07:35:15.471Z,70.53
2019-06-19T07:36:15.388Z,70.11
2019-06-19T07:37:15.399Z,70.11
2019-06-19T07:38:15.378Z,69.44
2019-06-19T07:39:19.101Z,69.34
2019-06-19T07:40:15.466Z,68.79
2019-06-19T07:41:15.400Z,68.94
2019-06-19T07:42:15.353Z,67.91
2019-06-19T07:43:15.352Z,68.84
2019-06-19T07:44:15.407Z,69.02
2019-06-19T07:45:15.437Z,68.22
2019-06-19T07:46:15.350Z,67.16
2019-06-19T07:47:15.498Z,66.56
2019-06-19T07:48:15.458Z,68.84
2019-06-19T07:49:15.544Z,64.46
2019-06-19T07:50:15.472Z,65.76
2019-06-19T07:51:15.483Z,65.16
2019-06-19T07:52:15.540Z,66.69
2019-06-19T07:53:15.491Z,66.64
2019-06-19T07:54:15.489Z,67.25
2019-06-19T07:55:15.495Z,66.33
2019-06-19T07:56:15.492Z,66.27
2019-06-19T07:57:15.499Z,66.14
2019-06-19T07:58:15.498Z,66.27
2019-06-19T07:59:15.449Z,65.65
2019-06-19T08:00:15.454Z,65.60
2019-06-19T08:01:15.394Z,67.52
2019-06-19T08:02:15.428Z,67.02
2019-06-19T08:03:15.510Z,65.99
2019-06-19T08:04:15.383Z,62.66
2019-06-19T08:05:15.419Z,63.18
2019-06-19T08:06:15.387Z,64.65
2019-06-19T08:07:15.450Z,62.87
2019-06-19T08:08:15.433Z,64.42
2019-06-19T08:09:15.476Z,62.99
2019-06-19T08:10:15.407Z,63.64
2019-06-19T08:11:15.504Z,63.62
2019-06-19T08:12:16.677Z,64.67
2019-06-19T08:13:15.443Z,61.30
2019-06-19T08:14:15.529Z,64.75
2019-06-19T08:15:15.509Z,62.63
2019-06-19T08:16:15.476Z,63.46
2019-06-19T08:17:15.435Z,62.97
2019-06-19T08:18:15.511Z,62.25
2019-06-19T08:19:15.504Z,61.38
2019-06-19T08:20:15.491Z,60.40
2019-06-19T08:21:15.449Z,60.84
2019-06-19T08:22:15.534Z,59.76
2019-06-19T08:23:15.450Z,60.25
2019-06-19T08:24:15.507Z,61.38
2019-06-19T08:25:15.513Z,62.20
2019-06-19T08:26:15.516Z,62.20
2019-06-19T08:27:15.485Z,61.50
2019-06-19T08:28:15.474Z,59.63
2019-06-19T08:29:15.493Z,57.87
2019-06-19T08:30:15.514Z,59.58
2019-06-19T08:31:15.576Z,58.46
2019-06-19T08:32:15.518Z,61.12
2019-06-19T08:33:15.520Z,59.78
2019-06-19T08:34:15.512Z,61.12
2019-06-19T08:35:15.463Z,59.32
2019-06-19T08:36:15.540Z,61.20
2019-06-19T08:37:15.521Z,60.40
2019-06-19T08:38:15.457Z,60.37
2019-06-19T08:39:15.606Z,60.68
2019-06-19T08:40:15.458Z,60.61
2019-06-19T08:41:15.528Z,60.81
2019-06-19T08:42:15.558Z,60.71
2019-06-19T08:43:15.464Z,60.68
2019-06-19T08:44:15.749Z,62.10
2019-06-19T08:45:15.478Z,63.79
2019-06-19T08:46:15.462Z,64.02
2019-06-19T08:47:15.538Z,62.18
2019-06-19T08:48:15.580Z,61.33
2019-06-19T08:49:15.532Z,62.02
2019-06-19T08:50:18.478Z,61.76
2019-06-19T08:51:15.456Z,62.74
2019-06-19T08:52:15.519Z,58.66
2019-06-19T08:53:15.526Z,57.64
2019-06-19T08:54:15.450Z,56.13
2019-06-19T08:55:15.485Z,57.66
2019-06-19T08:56:15.422Z,57.71
2019-06-19T08:57:15.503Z,57.59
2019-06-19T08:58:15.527Z,57.82
2019-06-19T08:59:15.472Z,57.74
2019-06-19T09:00:15.559Z,57.97
2019-06-19T09:01:15.537Z,56.44
2019-06-19T09:02:15.536Z,55.60
2019-06-19T09:03:15.457Z,55.50
2019-06-19T09:04:24.581Z,55.42
2019-06-19T09:05:15.463Z,57.82
2019-06-19T09:06:15.456Z,56.39
2019-06-19T09:07:15.461Z,55.75
2019-06-19T09:08:15.461Z,55.78
2019-06-19T09:09:15.541Z,56.33
2019-06-19T09:10:15.458Z,55.35
2019-06-19T09:11:15.568Z,58.64
2019-06-19T09:12:15.547Z,55.96
2019-06-19T09:13:15.549Z,56.00
2019-06-19T09:14:15.546Z,56.08
2019-06-19T09:15:15.558Z,55.42
2019-06-19T09:16:15.554Z,52.70
2019-06-19T09:17:15.549Z,53.11
2019-06-19T09:18:15.553Z,54.61
2019-06-19T09:19:15.555Z,53.82
2019-06-19T09:20:15.549Z,53.84
2019-06-19T09:21:15.556Z,53.47
2019-06-19T09:22:15.544Z,53.64
2019-06-19T09:23:15.518Z,52.55
2019-06-19T09:24:15.514Z,52.60
2019-06-19T09:25:15.704Z,52.48
2019-06-19T09:26:15.614Z,52.75
2019-06-19T09:27:15.554Z,51.97
2019-06-19T09:28:15.560Z,49.82
2019-06-19T09:29:15.492Z,50.05
2019-06-19T09:30:15.523Z,51.54
2019-06-19T09:31:15.644Z,51.21
2019-06-19T09:32:15.489Z,51.21
2019-06-19T09:33:18.466Z,50.88
2019-06-19T09:34:15.571Z,51.04
2019-06-19T09:35:15.570Z,51.46
2019-06-19T09:36:15.499Z,50.98
2019-06-19T09:37:15.569Z,50.68
2019-06-19T09:38:15.502Z,49.67
2019-06-19T09:39:15.567Z,50.68
2019-06-19T09:40:15.588Z,50.18
2019-06-19T09:41:15.482Z,51.04
2019-06-19T09:42:15.474Z,51.29
2019-06-19T09:43:15.562Z,51.89
2019-06-19T09:44:15.567Z,51.77
2019-06-19T09:45:15.486Z,51.84
2019-06-19T09:46:15.568Z,50.80
2019-06-19T09:47:15.537Z,50.60
2019-06-19T09:48:15.562Z,53.97
2019-06-19T09:49:15.571Z,50.35
2019-06-19T09:50:15.567Z,51.39
2019-06-19T09:51:15.566Z,51.21
2019-06-19T09:52:15.489Z,48.97
2019-06-19T09:53:15.568Z,51.54
2019-06-19T09:54:15.574Z,51.39
2019-06-19T09:55:15.564Z,49.69
2019-06-19T09:56:15.508Z,50.55
2019-06-19T09:57:15.483Z,49.92
2019-06-19T09:58:15.504Z,50.18
2019-06-19T09:59:15.571Z,52.83
2019-06-19T10:00:15.514Z,52.98
2019-06-19T10:01:15.580Z,49.34
2019-06-19T10:02:15.515Z,50.02
2019-06-19T10:03:15.591Z,49.87
2019-06-19T10:04:15.590Z,50.02
2019-06-19T10:05:15.621Z,49.09
2019-06-19T10:06:15.982Z,49.97
2019-06-19T10:07:15.530Z,49.37
2019-06-19T10:08:15.565Z,50.48
2019-06-19T10:09:15.530Z,50.45
2019-06-19T10:10:15.530Z,49.34
2019-06-19T10:11:15.489Z,53.64
2019-06-19T10:12:17.951Z,49.80
2019-06-19T10:13:15.467Z,46.50
2019-06-19T10:14:15.517Z,47.28
2019-06-19T10:15:15.522Z,48.74
2019-06-19T10:16:15.548Z,48.94
2019-06-19T10:17:15.495Z,47.23
2019-06-19T10:18:15.488Z,46.83
2019-06-19T10:19:15.619Z,47.08
2019-06-19T10:20:15.530Z,46.98
2019-06-19T10:21:15.587Z,47.61
2019-06-19T10:22:15.518Z,48.14
2019-06-19T10:23:15.486Z,48.89
2019-06-19T10:24:15.624Z,45.07
2019-06-19T10:25:15.592Z,42.75
2019-06-19T10:26:15.590Z,44.90
2019-06-19T10:27:15.502Z,42.80
2019-06-19T10:28:15.594Z,43.00
2019-06-19T10:29:15.528Z,43.35
2019-06-19T10:30:15.535Z,45.32
2019-06-19T10:31:15.546Z,45.75
2019-06-19T10:32:30.947Z,45.10
2019-06-19T10:33:15.510Z,44.05
2019-06-19T10:34:15.531Z,43.42
2019-06-19T10:35:23.834Z,43.20
2019-06-19T10:36:15.603Z,44.17
2019-06-19T10:37:15.540Z,42.12
2019-06-19T10:38:15.534Z,44.52
2019-06-19T10:39:15.512Z,41.48
2019-06-19T10:40:15.608Z,42.87
2019-06-19T10:41:15.565Z,41.98
2019-06-19T10:42:15.550Z,42.70
2019-06-19T10:43:15.563Z,42.23
2019-06-19T10:44:15.622Z,42.08
2019-06-19T10:45:15.617Z,41.63
2019-06-19T10:46:15.621Z,42.78
2019-06-19T10:47:15.548Z,45.00
2019-06-19T10:48:15.615Z,44.43
2019-06-19T10:49:15.591Z,43.50
2019-06-19T10:50:15.616Z,43.35
2019-06-19T10:51:15.556Z,43.22
2019-06-19T10:52:15.624Z,44.10
2019-06-19T10:53:15.633Z,43.55
2019-06-19T10:54:15.559Z,42.37
2019-06-19T10:55:15.559Z,41.78
2019-06-19T10:56:15.625Z,41.58
2019-06-19T10:57:15.560Z,41.61
2019-06-19T10:58:15.631Z,43.02
2019-06-19T10:59:15.558Z,42.83
2019-06-19T11:00:15.560Z,42.75
2019-06-19T11:01:15.565Z,45.37
2019-06-19T11:02:15.523Z,46.00
2019-06-19T11:03:15.621Z,44.47
2019-06-19T11:04:15.859Z,42.83
2019-06-19T11:05:15.674Z,45.40
2019-06-19T11:06:15.562Z,44.45
2019-06-19T11:07:15.629Z,42.97
2019-06-19T11:08:15.573Z,42.28
2019-06-19T11:09:15.623Z,43.17
2019-06-19T11:10:15.646Z,43.05
2019-06-19T11:11:15.553Z,43.25
2019-06-19T11:12:15.563Z,43.20
2019-06-19T11:13:15.554Z,43.82
2019-06-19T11:14:15.554Z,42.55
2019-06-19T11:15:15.561Z,43.00
2019-06-19T11:16:15.562Z,43.27
2019-06-19T11:17:15.624Z,42.75
2019-06-19T11:18:15.715Z,43.85
2019-06-19T11:19:15.642Z,44.43
2019-06-19T11:20:15.547Z,45.75
2019-06-19T11:21:15.633Z,43.90
2019-06-19T11:22:15.624Z,44.12
2019-06-19T11:23:15.543Z,44.75
2019-06-19T11:24:15.542Z,43.10
2019-06-19T11:25:15.572Z,43.80
2019-06-19T11:26:15.563Z,43.40
2019-06-19T11:27:15.610Z,42.58
2019-06-19T11:28:15.514Z,43.85
2019-06-19T11:29:15.535Z,43.70
2019-06-19T11:30:15.639Z,42.97
2019-06-19T11:31:15.526Z,44.55
2019-06-19T11:32:15.583Z,42.48
2019-06-19T11:33:15.581Z,44.02
2019-06-19T11:34:15.585Z,43.33
2019-06-19T11:35:15.658Z,43.08
2019-06-19T11:36:15.650Z,43.82
2019-06-19T11:37:15.660Z,43.55
2019-06-19T11:38:15.546Z,44.85
2019-06-19T11:39:15.587Z,44.80
2019-06-19T11:40:15.657Z,45.15
2019-06-19T11:41:15.703Z,45.30
2019-06-19T11:42:15.601Z,44.47
2019-06-19T11:43:15.580Z,42.97
2019-06-19T11:44:15.620Z,42.40
2019-06-19T11:45:15.637Z,41.93
2019-06-19T11:46:16.886Z,42.87
2019-06-19T11:47:15.650Z,42.95
2019-06-19T11:48:15.655Z,44.35
2019-06-19T11:49:15.532Z,43.52
2019-06-19T11:50:15.648Z,44.17
2019-06-19T11:51:15.657Z,43.67
2019-06-19T11:52:15.619Z,42.60
2019-06-19T11:53:15.675Z,44.17
2019-06-19T11:54:15.615Z,44.82
2019-06-19T11:55:15.600Z,43.70
2019-06-19T11:56:15.628Z,42.25
2019-06-19T11:57:15.670Z,42.83
2019-06-19T11:58:15.681Z,44.57
2019-06-19T11:59:15.671Z,43.02
2019-06-19T12:00:15.621Z,43.15
2019-06-19T12:01:15.733Z,42.65
2019-06-19T12:02:15.572Z,42.23
2019-06-19T12:03:26.178Z,43.60
2019-06-19T12:04:15.568Z,46.38
2019-06-19T12:05:15.660Z,43.80
2019-06-19T12:06:15.568Z,43.35
2019-06-19T12:07:15.819Z,43.50
2019-06-19T12:08:15.666Z,44.15
2019-06-19T12:09:15.627Z,44.05
2019-06-19T12:10:15.630Z,44.12
2019-06-19T12:11:15.674Z,43.08
2019-06-19T12:12:15.640Z,42.05
2019-06-19T12:13:15.675Z,42.85
2019-06-19T12:14:19.033Z,42.95
2019-06-19T12:15:15.618Z,40.56
2019-06-19T12:16:15.667Z,42.12
2019-06-19T12:17:15.627Z,43.25
2019-06-19T12:18:15.654Z,43.45
2019-06-19T12:19:15.624Z,44.50
2019-06-19T12:20:15.604Z,43.72
2019-06-19T12:21:15.629Z,43.72
2019-06-19T12:22:15.625Z,43.57
2019-06-19T12:23:15.639Z,42.83
2019-06-19T12:24:15.624Z,42.40
2019-06-19T12:25:15.681Z,43.57
2019-06-19T12:26:15.680Z,43.85
2019-06-19T12:27:15.613Z,42.10
2019-06-19T12:28:15.584Z,42.12
2019-06-19T12:29:15.652Z,42.85
2019-06-19T12:30:15.584Z,43.08
2019-06-19T12:31:15.595Z,44.15
2019-06-19T12:32:15.766Z,45.00
2019-06-19T12:33:15.697Z,42.28
2019-06-19T12:34:15.632Z,40.85
2019-06-19T12:35:15.719Z,41.61
2019-06-19T12:36:29.028Z,41.10
2019-06-19T12:37:15.702Z,41.58
2019-06-19T12:38:15.703Z,40.91
2019-06-19T12:39:15.633Z,41.95
2019-06-19T12:40:15.757Z,42.10
2019-06-19T12:41:15.637Z,41.98
2019-06-19T12:42:15.611Z,42.58
2019-06-19T12:43:15.575Z,42.97
2019-06-19T12:44:15.660Z,43.67
2019-06-19T12:45:15.693Z,43.40
2019-06-19T12:46:15.683Z,43.57
2019-06-19T12:47:15.675Z,44.90
2019-06-19T12:48:15.606Z,43.10
2019-06-19T12:49:15.591Z,43.70
2019-06-19T12:50:15.687Z,44.82
2019-06-19T12:51:15.681Z,44.82
2019-06-19T12:52:15.716Z,45.37
2019-06-19T12:53:15.716Z,44.90
2019-06-19T12:54:15.715Z,45.85
2019-06-19T12:55:15.656Z,45.05
2019-06-19T12:56:15.662Z,46.63
2019-06-19T12:57:15.603Z,45.10
2019-06-19T12:58:15.714Z,44.55
2019-06-19T12:59:15.724Z,43.67
2019-06-19T13:00:15.733Z,44.52
2019-06-19T13:01:15.654Z,44.22
2019-06-19T13:02:15.730Z,44.43
2019-06-19T13:03:15.749Z,42.95
2019-06-19T13:04:15.732Z,43.55
2019-06-19T13:05:15.654Z,43.27
2019-06-19T13:06:15.708Z,43.88
2019-06-19T13:07:16.008Z,43.90
2019-06-19T13:08:15.666Z,43.90
2019-06-19T13:09:15.727Z,43.13
2019-06-19T13:10:15.658Z,44.50
2019-06-19T13:11:15.665Z,43.25
2019-06-19T13:12:15.674Z,44.97
2019-06-19T13:13:15.664Z,45.35
2019-06-19T13:14:15.726Z,44.10
2019-06-19T13:15:15.665Z,43.80
2019-06-19T13:16:15.729Z,44.10
2019-06-19T13:17:15.732Z,45.55
2019-06-19T13:18:15.733Z,44.37
2019-06-19T13:19:15.686Z,45.05
2019-06-19T13:20:15.665Z,43.80
2019-06-19T13:21:17.959Z,44.93
2019-06-19T13:22:15.666Z,45.18
2019-06-19T13:23:15.645Z,45.20
2019-06-19T13:24:15.650Z,44.70
2019-06-19T13:25:15.756Z,45.48
2019-06-19T13:26:15.666Z,44.93
2019-06-19T13:27:15.640Z,46.07
2019-06-19T13:28:15.654Z,45.65
2019-06-19T13:29:15.742Z,43.92
2019-06-19T13:30:15.738Z,44.82
2019-06-19T13:31:15.734Z,45.43
2019-06-19T13:32:15.699Z,44.30
2019-06-19T13:33:15.737Z,45.10
2019-06-19T13:34:15.735Z,44.55
2019-06-19T13:35:15.804Z,45.00
2019-06-19T13:36:15.741Z,46.15
2019-06-19T13:37:15.753Z,47.45
2019-06-19T13:38:15.670Z,46.15
2019-06-19T13:39:15.665Z,47.10
2019-06-19T13:40:15.734Z,46.15
2019-06-19T13:41:21.224Z,47.48
2019-06-19T13:42:15.747Z,47.13
2019-06-19T13:43:15.682Z,47.58
2019-06-19T13:44:15.685Z,49.34
2019-06-19T13:45:15.762Z,48.44
2019-06-19T13:46:15.692Z,48.77
2019-06-19T13:47:15.845Z,48.01
2019-06-19T13:48:15.759Z,51.97
2019-06-19T13:49:15.658Z,48.74
2019-06-19T13:50:15.779Z,50.20
2019-06-19T13:51:15.696Z,50.18
2019-06-19T13:52:15.670Z,50.60
2019-06-19T13:53:15.663Z,50.83
2019-06-19T13:54:29.861Z,49.77
2019-06-19T13:55:15.688Z,50.58
2019-06-19T13:56:15.750Z,52.60
2019-06-19T13:57:15.758Z,53.69
2019-06-19T13:58:15.754Z,55.60
2019-06-19T13:59:15.754Z,57.23
2019-06-19T14:00:15.752Z,57.84
2019-06-19T14:01:15.766Z,56.69
2019-06-19T14:02:15.655Z,55.83
2019-06-19T14:03:15.632Z,57.18
2019-06-19T14:04:15.756Z,57.95
2019-06-19T14:05:15.637Z,60.43
2019-06-19T14:06:15.698Z,65.70
2019-06-19T14:07:19.991Z,70.87
2019-06-19T14:08:15.658Z,76.49
2019-06-19T14:09:15.779Z,81.48
2019-06-19T14:10:15.696Z,84.84
2019-06-19T14:11:15.765Z,86.60
2019-06-19T14:12:15.777Z,88.97
2019-06-19T14:13:15.710Z,91.28
2019-06-19T14:14:15.790Z,93.16
2019-06-19T14:15:15.778Z,94.34
2019-06-19T14:16:15.741Z,96.17
2019-06-19T14:17:15.774Z,98.31
2019-06-19T14:18:15.837Z,99.86
2019-06-19T14:19:15.782Z,99.99
2019-06-19T14:20:15.719Z,99.99
2019-06-19T14:21:15.714Z,99.99
2019-06-19T14:22:15.786Z,99.99
2019-06-19T14:23:15.732Z,99.99
2019-06-19T14:24:15.717Z,99.99
2019-06-19T14:25:15.744Z,99.99
2019-06-19T14:26:15.715Z,99.99
2019-06-19T14:27:15.784Z,99.99
2019-06-19T14:28:15.793Z,99.99
2019-06-19T14:29:15.790Z,99.99
2019-06-19T14:30:15.801Z,99.99
2019-06-19T14:31:15.723Z,99.99
2019-06-19T14:32:15.749Z,99.99
2019-06-19T14:33:15.689Z,99.99
2019-06-19T14:34:15.644Z,99.99
2019-06-19T14:35:15.744Z,99.99
2019-06-19T14:36:15.659Z,99.99
2019-06-19T14:37:15.690Z,99.99
2019-06-19T14:38:15.739Z,99.99
2019-06-19T14:39:15.780Z,99.99
2019-06-19T14:40:15.741Z,99.99
2019-06-19T14:41:15.649Z,99.99
2019-06-19T14:42:15.684Z,99.99
2019-06-19T14:43:15.782Z,99.99
2019-06-19T14:44:15.727Z,99.99
2019-06-19T14:45:15.663Z,99.99
2019-06-19T14:46:15.827Z,99.99
2019-06-19T14:47:15.748Z,99.99
2019-06-19T14:48:15.724Z,99.99
2019-06-19T14:49:15.770Z,99.99
2019-06-19T14:50:15.803Z,99.99
2019-06-19T14:51:15.790Z,99.99
2019-06-19T14:52:15.804Z,99.99